sensor_id;sensor_type;location;lat;lon;timestamp;P1;durP1;ratioP1;P2;durP2;ratioP2
8632;SDS011;4354;49.832;10.746;2023-04-25T00:01:37;5.83;;;4.20;;
8632;SDS011;4354;49.832;10.746;2023-04-25T00:04:04;4.53;;;4.13;;
8632;SDS011;4354;49.832;10.746;2023-04-25T00:06:34;4.50;;;4.10;;
8632;SDS011;4354;49.832;10.746;2023-04-25T00:09:03;5.70;;;4.23;;
8632;SDS011;4354;49.832;10.746;2023-04-25T00:11:33;4.40;;;4.00;;
8632;SDS011;4354;49.832;10.746;2023-04-25T00:14:00;4.37;;;3.70;;
8632;SDS011;4354;49.832;10.746;2023-04-25T00:16:28;5.70;;;4.17;;
8632;SDS011;4354;49.832;10.746;2023-04-25T00:19:00;4.13;;;3.80;;
8632;SDS011;4354;49.832;10.746;2023-04-25T00:21:29;4.87;;;4.40;;
8632;SDS011;4354;49.832;10.746;2023-04-25T00:23:58;4.77;;;4.23;;
8632;SDS011;4354;49.832;10.746;2023-04-25T00:26:25;5.20;;;4.70;;
8632;SDS011;4354;49.832;10.746;2023-04-25T00:28:52;4.80;;;4.40;;
8632;SDS011;4354;49.832;10.746;2023-04-25T00:31:19;4.63;;;4.23;;
8632;SDS011;4354;49.832;10.746;2023-04-25T00:33:47;3.90;;;3.60;;
8632;SDS011;4354;49.832;10.746;2023-04-25T00:36:14;5.17;;;4.37;;
8632;SDS011;4354;49.832;10.746;2023-04-25T00:38:41;7.60;;;3.93;;
8632;SDS011;4354;49.832;10.746;2023-04-25T00:41:08;4.23;;;3.83;;
8632;SDS011;4354;49.832;10.746;2023-04-25T00:43:36;4.80;;;3.80;;
8632;SDS011;4354;49.832;10.746;2023-04-25T00:46:03;4.23;;;3.83;;
8632;SDS011;4354;49.832;10.746;2023-04-25T00:48:31;4.47;;;4.07;;
8632;SDS011;4354;49.832;10.746;2023-04-25T00:50:59;4.63;;;4.07;;
8632;SDS011;4354;49.832;10.746;2023-04-25T00:53:27;4.63;;;4.10;;
8632;SDS011;4354;49.832;10.746;2023-04-25T00:55:55;4.63;;;4.10;;
8632;SDS011;4354;49.832;10.746;2023-04-25T00:58:22;4.20;;;3.80;;
8632;SDS011;4354;49.832;10.746;2023-04-25T01:00:50;4.53;;;3.67;;
8632;SDS011;4354;49.832;10.746;2023-04-25T01:03:18;4.33;;;3.93;;
8632;SDS011;4354;49.832;10.746;2023-04-25T01:05:49;4.63;;;4.13;;
8632;SDS011;4354;49.832;10.746;2023-04-25T01:08:17;4.33;;;3.83;;
8632;SDS011;4354;49.832;10.746;2023-04-25T01:10:43;5.47;;;4.00;;
8632;SDS011;4354;49.832;10.746;2023-04-25T01:13:10;4.90;;;3.93;;
8632;SDS011;4354;49.832;10.746;2023-04-25T01:15:37;4.50;;;4.10;;
8632;SDS011;4354;49.832;10.746;2023-04-25T01:18:04;4.53;;;4.13;;
8632;SDS011;4354;49.832;10.746;2023-04-25T01:20:32;4.50;;;3.90;;
8632;SDS011;4354;49.832;10.746;2023-04-25T01:23:00;4.17;;;3.77;;
8632;SDS011;4354;49.832;10.746;2023-04-25T01:25:29;4.73;;;3.63;;
8632;SDS011;4354;49.832;10.746;2023-04-25T01:27:57;4.47;;;4.00;;
8632;SDS011;4354;49.832;10.746;2023-04-25T01:30:27;4.93;;;4.40;;
8632;SDS011;4354;49.832;10.746;2023-04-25T01:32:55;5.97;;;4.80;;
8632;SDS011;4354;49.832;10.746;2023-04-25T01:35:23;5.33;;;4.60;;
8632;SDS011;4354;49.832;10.746;2023-04-25T01:37:52;5.73;;;4.97;;
8632;SDS011;4354;49.832;10.746;2023-04-25T01:40:19;5.30;;;4.80;;
8632;SDS011;4354;49.832;10.746;2023-04-25T01:42:48;5.70;;;5.23;;
8632;SDS011;4354;49.832;10.746;2023-04-25T01:45:16;5.53;;;5.03;;
8632;SDS011;4354;49.832;10.746;2023-04-25T01:47:44;5.80;;;5.20;;
8632;SDS011;4354;49.832;10.746;2023-04-25T01:50:16;6.20;;;5.57;;
8632;SDS011;4354;49.832;10.746;2023-04-25T01:52:44;6.73;;;6.03;;
8632;SDS011;4354;49.832;10.746;2023-04-25T01:55:11;10.87;;;6.43;;
8632;SDS011;4354;49.832;10.746;2023-04-25T01:57:38;6.87;;;6.17;;
8632;SDS011;4354;49.832;10.746;2023-04-25T02:00:06;7.00;;;6.30;;
8632;SDS011;4354;49.832;10.746;2023-04-25T02:02:34;7.80;;;7.00;;
8632;SDS011;4354;49.832;10.746;2023-04-25T02:05:01;7.43;;;6.63;;
8632;SDS011;4354;49.832;10.746;2023-04-25T02:07:28;8.13;;;6.87;;
8632;SDS011;4354;49.832;10.746;2023-04-25T02:09:55;7.37;;;6.53;;
8632;SDS011;4354;49.832;10.746;2023-04-25T02:12:22;7.23;;;6.53;;
8632;SDS011;4354;49.832;10.746;2023-04-25T02:14:49;7.27;;;6.57;;
8632;SDS011;4354;49.832;10.746;2023-04-25T02:17:16;7.50;;;6.70;;
8632;SDS011;4354;49.832;10.746;2023-04-25T02:19:43;7.53;;;6.77;;
8632;SDS011;4354;49.832;10.746;2023-04-25T02:22:10;8.97;;;7.30;;
8632;SDS011;4354;49.832;10.746;2023-04-25T02:24:37;7.50;;;6.80;;
8632;SDS011;4354;49.832;10.746;2023-04-25T02:27:03;7.90;;;7.10;;
8632;SDS011;4354;49.832;10.746;2023-04-25T02:29:30;7.77;;;6.90;;
8632;SDS011;4354;49.832;10.746;2023-04-25T02:31:57;7.53;;;6.70;;
8632;SDS011;4354;49.832;10.746;2023-04-25T02:34:24;7.13;;;6.43;;
8632;SDS011;4354;49.832;10.746;2023-04-25T02:36:51;7.83;;;7.00;;
8632;SDS011;4354;49.832;10.746;2023-04-25T02:39:18;6.87;;;6.27;;
8632;SDS011;4354;49.832;10.746;2023-04-25T02:41:44;7.53;;;6.70;;
8632;SDS011;4354;49.832;10.746;2023-04-25T02:44:11;7.13;;;6.43;;
8632;SDS011;4354;49.832;10.746;2023-04-25T02:46:38;7.17;;;6.20;;
8632;SDS011;4354;49.832;10.746;2023-04-25T02:49:05;7.77;;;6.83;;
8632;SDS011;4354;49.832;10.746;2023-04-25T02:51:32;6.33;;;5.73;;
8632;SDS011;4354;49.832;10.746;2023-04-25T02:53:59;8.40;;;6.60;;
8632;SDS011;4354;49.832;10.746;2023-04-25T02:56:26;7.13;;;6.43;;
8632;SDS011;4354;49.832;10.746;2023-04-25T02:58:53;7.33;;;6.63;;
8632;SDS011;4354;49.832;10.746;2023-04-25T03:01:20;6.17;;;5.57;;
8632;SDS011;4354;49.832;10.746;2023-04-25T03:03:47;6.97;;;6.33;;
8632;SDS011;4354;49.832;10.746;2023-04-25T03:06:14;7.00;;;6.40;;
8632;SDS011;4354;49.832;10.746;2023-04-25T03:08:42;6.87;;;6.17;;
8632;SDS011;4354;49.832;10.746;2023-04-25T03:11:09;6.50;;;5.80;;
8632;SDS011;4354;49.832;10.746;2023-04-25T03:13:36;7.27;;;5.60;;
8632;SDS011;4354;49.832;10.746;2023-04-25T03:16:03;7.23;;;6.00;;
8632;SDS011;4354;49.832;10.746;2023-04-25T03:18:30;7.20;;;6.37;;
8632;SDS011;4354;49.832;10.746;2023-04-25T03:20:57;6.90;;;6.20;;
8632;SDS011;4354;49.832;10.746;2023-04-25T03:23:24;6.70;;;6.00;;
8632;SDS011;4354;49.832;10.746;2023-04-25T03:25:52;6.10;;;5.50;;
8632;SDS011;4354;49.832;10.746;2023-04-25T03:28:18;6.83;;;6.10;;
8632;SDS011;4354;49.832;10.746;2023-04-25T03:30:46;6.50;;;5.43;;
8632;SDS011;4354;49.832;10.746;2023-04-25T03:33:13;6.13;;;5.53;;
8632;SDS011;4354;49.832;10.746;2023-04-25T03:35:42;6.47;;;5.87;;
8632;SDS011;4354;49.832;10.746;2023-04-25T03:38:09;6.60;;;5.97;;
8632;SDS011;4354;49.832;10.746;2023-04-25T03:40:36;7.07;;;6.37;;
8632;SDS011;4354;49.832;10.746;2023-04-25T03:43:03;7.17;;;6.30;;
8632;SDS011;4354;49.832;10.746;2023-04-25T03:45:30;6.47;;;5.77;;
8632;SDS011;4354;49.832;10.746;2023-04-25T03:47:58;6.53;;;5.90;;
8632;SDS011;4354;49.832;10.746;2023-04-25T03:50:24;7.20;;;5.93;;
8632;SDS011;4354;49.832;10.746;2023-04-25T03:52:51;7.97;;;5.97;;
8632;SDS011;4354;49.832;10.746;2023-04-25T03:55:18;8.07;;;6.10;;
8632;SDS011;4354;49.832;10.746;2023-04-25T03:57:45;7.90;;;6.60;;
8632;SDS011;4354;49.832;10.746;2023-04-25T04:00:12;6.50;;;5.90;;
8632;SDS011;4354;49.832;10.746;2023-04-25T04:02:39;6.37;;;5.77;;
8632;SDS011;4354;49.832;10.746;2023-04-25T04:05:09;6.80;;;6.10;;
8632;SDS011;4354;49.832;10.746;2023-04-25T04:07:36;6.20;;;5.60;;
8632;SDS011;4354;49.832;10.746;2023-04-25T04:10:06;6.07;;;5.47;;
8632;SDS011;4354;49.832;10.746;2023-04-25T04:12:33;5.73;;;5.23;;
8632;SDS011;4354;49.832;10.746;2023-04-25T04:15:01;5.80;;;5.30;;
8632;SDS011;4354;49.832;10.746;2023-04-25T04:17:29;5.87;;;5.37;;
8632;SDS011;4354;49.832;10.746;2023-04-25T04:19:56;5.73;;;5.13;;
8632;SDS011;4354;49.832;10.746;2023-04-25T04:22:23;5.67;;;4.70;;
8632;SDS011;4354;49.832;10.746;2023-04-25T04:24:50;5.43;;;4.93;;
8632;SDS011;4354;49.832;10.746;2023-04-25T04:27:17;5.70;;;5.20;;
8632;SDS011;4354;49.832;10.746;2023-04-25T04:29:46;5.37;;;4.87;;
8632;SDS011;4354;49.832;10.746;2023-04-25T04:32:13;5.40;;;4.37;;
8632;SDS011;4354;49.832;10.746;2023-04-25T04:34:40;5.77;;;4.70;;
8632;SDS011;4354;49.832;10.746;2023-04-25T04:37:07;5.40;;;4.87;;
8632;SDS011;4354;49.832;10.746;2023-04-25T04:39:34;5.97;;;5.13;;
8632;SDS011;4354;49.832;10.746;2023-04-25T04:42:01;5.37;;;4.87;;
8632;SDS011;4354;49.832;10.746;2023-04-25T04:44:29;6.00;;;5.50;;
8632;SDS011;4354;49.832;10.746;2023-04-25T04:46:59;5.77;;;5.27;;
8632;SDS011;4354;49.832;10.746;2023-04-25T04:49:26;5.67;;;5.17;;
8632;SDS011;4354;49.832;10.746;2023-04-25T04:51:53;6.07;;;5.33;;
8632;SDS011;4354;49.832;10.746;2023-04-25T04:54:23;6.93;;;6.00;;
8632;SDS011;4354;49.832;10.746;2023-04-25T04:56:51;6.20;;;5.60;;
8632;SDS011;4354;49.832;10.746;2023-04-25T04:59:18;6.10;;;5.60;;
8632;SDS011;4354;49.832;10.746;2023-04-25T05:01:45;6.60;;;6.00;;
8632;SDS011;4354;49.832;10.746;2023-04-25T05:04:12;7.20;;;6.50;;
8632;SDS011;4354;49.832;10.746;2023-04-25T05:06:39;7.67;;;6.97;;
8632;SDS011;4354;49.832;10.746;2023-04-25T05:09:07;9.00;;;8.07;;
8632;SDS011;4354;49.832;10.746;2023-04-25T05:11:33;8.63;;;7.73;;
8632;SDS011;4354;49.832;10.746;2023-04-25T05:14:00;8.97;;;8.03;;
8632;SDS011;4354;49.832;10.746;2023-04-25T05:16:27;8.83;;;7.47;;
8632;SDS011;4354;49.832;10.746;2023-04-25T05:18:54;7.70;;;6.90;;
8632;SDS011;4354;49.832;10.746;2023-04-25T05:21:21;8.10;;;7.00;;
8632;SDS011;4354;49.832;10.746;2023-04-25T05:23:48;7.77;;;7.00;;
8632;SDS011;4354;49.832;10.746;2023-04-25T05:26:15;8.00;;;7.30;;
8632;SDS011;4354;49.832;10.746;2023-04-25T05:28:42;8.13;;;7.40;;
8632;SDS011;4354;49.832;10.746;2023-04-25T05:31:09;7.87;;;7.00;;
8632;SDS011;4354;49.832;10.746;2023-04-25T05:33:36;8.67;;;7.83;;
8632;SDS011;4354;49.832;10.746;2023-04-25T05:36:03;9.30;;;7.93;;
8632;SDS011;4354;49.832;10.746;2023-04-25T05:38:30;9.53;;;8.10;;
8632;SDS011;4354;49.832;10.746;2023-04-25T05:41:00;8.90;;;8.00;;
8632;SDS011;4354;49.832;10.746;2023-04-25T05:43:27;8.70;;;7.90;;
8632;SDS011;4354;49.832;10.746;2023-04-25T05:45:53;9.53;;;8.10;;
8632;SDS011;4354;49.832;10.746;2023-04-25T05:48:20;10.27;;;9.30;;
8632;SDS011;4354;49.832;10.746;2023-04-25T05:50:47;9.03;;;8.20;;
8632;SDS011;4354;49.832;10.746;2023-04-25T05:53:14;10.43;;;9.47;;
8632;SDS011;4354;49.832;10.746;2023-04-25T05:55:41;10.20;;;9.20;;
8632;SDS011;4354;49.832;10.746;2023-04-25T05:58:07;9.83;;;8.70;;
8632;SDS011;4354;49.832;10.746;2023-04-25T06:00:34;10.60;;;8.87;;
8632;SDS011;4354;49.832;10.746;2023-04-25T06:03:01;9.40;;;8.50;;
8632;SDS011;4354;49.832;10.746;2023-04-25T06:05:28;9.70;;;8.30;;
8632;SDS011;4354;49.832;10.746;2023-04-25T06:07:56;9.20;;;8.23;;
8632;SDS011;4354;49.832;10.746;2023-04-25T06:10:22;9.40;;;8.40;;
8632;SDS011;4354;49.832;10.746;2023-04-25T06:12:49;9.47;;;8.33;;
8632;SDS011;4354;49.832;10.746;2023-04-25T06:15:16;9.60;;;8.70;;
8632;SDS011;4354;49.832;10.746;2023-04-25T06:17:53;10.33;;;9.23;;
8632;SDS011;4354;49.832;10.746;2023-04-25T06:20:21;10.50;;;9.30;;
8632;SDS011;4354;49.832;10.746;2023-04-25T06:22:50;10.67;;;9.67;;
8632;SDS011;4354;49.832;10.746;2023-04-25T06:25:18;10.60;;;9.60;;
8632;SDS011;4354;49.832;10.746;2023-04-25T06:27:44;10.57;;;8.90;;
8632;SDS011;4354;49.832;10.746;2023-04-25T06:30:12;9.87;;;8.87;;
8632;SDS011;4354;49.832;10.746;2023-04-25T06:32:39;9.90;;;8.90;;
8632;SDS011;4354;49.832;10.746;2023-04-25T06:35:06;8.90;;;7.23;;
8632;SDS011;4354;49.832;10.746;2023-04-25T06:37:33;10.70;;;8.17;;
8632;SDS011;4354;49.832;10.746;2023-04-25T06:40:00;7.53;;;6.73;;
8632;SDS011;4354;49.832;10.746;2023-04-25T06:42:27;8.17;;;7.37;;
8632;SDS011;4354;49.832;10.746;2023-04-25T06:44:53;7.37;;;6.40;;
8632;SDS011;4354;49.832;10.746;2023-04-25T06:47:20;7.93;;;6.27;;
8632;SDS011;4354;49.832;10.746;2023-04-25T06:49:47;7.30;;;6.60;;
8632;SDS011;4354;49.832;10.746;2023-04-25T06:52:14;6.53;;;5.80;;
8632;SDS011;4354;49.832;10.746;2023-04-25T06:54:41;6.77;;;5.50;;
8632;SDS011;4354;49.832;10.746;2023-04-25T06:57:07;6.13;;;5.17;;
8632;SDS011;4354;49.832;10.746;2023-04-25T06:59:34;6.80;;;5.30;;
8632;SDS011;4354;49.832;10.746;2023-04-25T07:02:01;5.27;;;4.60;;
8632;SDS011;4354;49.832;10.746;2023-04-25T07:04:28;5.53;;;4.77;;
8632;SDS011;4354;49.832;10.746;2023-04-25T07:06:55;10.80;;;5.07;;
8632;SDS011;4354;49.832;10.746;2023-04-25T07:09:22;6.43;;;4.80;;
8632;SDS011;4354;49.832;10.746;2023-04-25T07:11:49;5.50;;;3.90;;
8632;SDS011;4354;49.832;10.746;2023-04-25T07:14:16;6.43;;;3.97;;
8632;SDS011;4354;49.832;10.746;2023-04-25T07:16:42;6.50;;;4.43;;
8632;SDS011;4354;49.832;10.746;2023-04-25T07:19:09;7.80;;;4.90;;
8632;SDS011;4354;49.832;10.746;2023-04-25T07:21:36;8.33;;;4.37;;
8632;SDS011;4354;49.832;10.746;2023-04-25T07:24:03;6.20;;;4.20;;
8632;SDS011;4354;49.832;10.746;2023-04-25T07:26:30;5.50;;;3.90;;
8632;SDS011;4354;49.832;10.746;2023-04-25T07:28:57;9.37;;;3.40;;
8632;SDS011;4354;49.832;10.746;2023-04-25T07:31:23;5.40;;;3.28;;
8632;SDS011;4354;49.832;10.746;2023-04-25T07:33:50;4.85;;;3.03;;
8632;SDS011;4354;49.832;10.746;2023-04-25T07:36:17;5.20;;;2.88;;
8632;SDS011;4354;49.832;10.746;2023-04-25T07:38:44;3.03;;;2.72;;
8632;SDS011;4354;49.832;10.746;2023-04-25T07:41:11;3.90;;;2.80;;
8632;SDS011;4354;49.832;10.746;2023-04-25T07:43:38;3.17;;;2.55;;
8632;SDS011;4354;49.832;10.746;2023-04-25T07:46:04;4.57;;;3.30;;
8632;SDS011;4354;49.832;10.746;2023-04-25T07:48:31;6.90;;;2.88;;
8632;SDS011;4354;49.832;10.746;2023-04-25T07:50:58;4.28;;;2.60;;
8632;SDS011;4354;49.832;10.746;2023-04-25T07:53:25;3.17;;;2.72;;
8632;SDS011;4354;49.832;10.746;2023-04-25T07:55:52;3.83;;;3.10;;
8632;SDS011;4354;49.832;10.746;2023-04-25T07:58:18;3.63;;;2.70;;
8632;SDS011;4354;49.832;10.746;2023-04-25T08:00:48;3.75;;;2.38;;
8632;SDS011;4354;49.832;10.746;2023-04-25T08:03:15;3.45;;;2.58;;
8632;SDS011;4354;49.832;10.746;2023-04-25T08:05:42;4.43;;;2.45;;
8632;SDS011;4354;49.832;10.746;2023-04-25T08:08:09;2.38;;;2.17;;
8632;SDS011;4354;49.832;10.746;2023-04-25T08:10:36;3.78;;;2.40;;
8632;SDS011;4354;49.832;10.746;2023-04-25T08:13:03;2.53;;;2.10;;
8632;SDS011;4354;49.832;10.746;2023-04-25T08:15:30;5.03;;;2.70;;
8632;SDS011;4354;49.832;10.746;2023-04-25T08:17:56;2.58;;;1.95;;
8632;SDS011;4354;49.832;10.746;2023-04-25T08:20:23;3.00;;;2.25;;
8632;SDS011;4354;49.832;10.746;2023-04-25T08:22:51;3.92;;;1.90;;
8632;SDS011;4354;49.832;10.746;2023-04-25T08:25:18;2.53;;;2.03;;
8632;SDS011;4354;49.832;10.746;2023-04-25T08:27:44;5.07;;;2.50;;
8632;SDS011;4354;49.832;10.746;2023-04-25T08:30:11;3.15;;;1.77;;
8632;SDS011;4354;49.832;10.746;2023-04-25T08:32:38;3.97;;;2.28;;
8632;SDS011;4354;49.832;10.746;2023-04-25T08:35:05;4.38;;;2.05;;
8632;SDS011;4354;49.832;10.746;2023-04-25T08:37:33;4.90;;;2.40;;
8632;SDS011;4354;49.832;10.746;2023-04-25T08:39:59;2.80;;;1.90;;
8632;SDS011;4354;49.832;10.746;2023-04-25T08:42:26;5.57;;;1.98;;
8632;SDS011;4354;49.832;10.746;2023-04-25T08:44:55;4.45;;;2.05;;
8632;SDS011;4354;49.832;10.746;2023-04-25T08:47:22;3.05;;;2.20;;
8632;SDS011;4354;49.832;10.746;2023-04-25T08:49:50;2.92;;;1.92;;
8632;SDS011;4354;49.832;10.746;2023-04-25T08:52:22;3.25;;;1.88;;
8632;SDS011;4354;49.832;10.746;2023-04-25T08:54:50;2.40;;;1.65;;
8632;SDS011;4354;49.832;10.746;2023-04-25T08:57:18;2.78;;;2.10;;
8632;SDS011;4354;49.832;10.746;2023-04-25T08:59:46;1.80;;;1.40;;
8632;SDS011;4354;49.832;10.746;2023-04-25T09:02:15;2.75;;;1.50;;
8632;SDS011;4354;49.832;10.746;2023-04-25T09:04:44;2.90;;;2.00;;
8632;SDS011;4354;49.832;10.746;2023-04-25T09:07:11;3.47;;;1.90;;
8632;SDS011;4354;49.832;10.746;2023-04-25T09:09:38;4.93;;;1.50;;
8632;SDS011;4354;49.832;10.746;2023-04-25T09:12:06;5.85;;;2.00;;
8632;SDS011;4354;49.832;10.746;2023-04-25T09:14:33;3.70;;;1.98;;
8632;SDS011;4354;49.832;10.746;2023-04-25T09:17:00;2.72;;;1.70;;
8632;SDS011;4354;49.832;10.746;2023-04-25T09:22:06;4.05;;;1.90;;
8632;SDS011;4354;49.832;10.746;2023-04-25T09:24:37;4.18;;;1.88;;
8632;SDS011;4354;49.832;10.746;2023-04-25T09:27:10;2.65;;;2.00;;
8632;SDS011;4354;49.832;10.746;2023-04-25T09:29:38;5.70;;;2.47;;
8632;SDS011;4354;49.832;10.746;2023-04-25T09:32:23;4.60;;;2.50;;
8632;SDS011;4354;49.832;10.746;2023-04-25T09:34:54;5.68;;;2.70;;
8632;SDS011;4354;49.832;10.746;2023-04-25T09:37:25;3.88;;;2.63;;
8632;SDS011;4354;49.832;10.746;2023-04-25T09:39:54;3.75;;;2.45;;
8632;SDS011;4354;49.832;10.746;2023-04-25T09:42:23;3.42;;;2.20;;
8632;SDS011;4354;49.832;10.746;2023-04-25T09:44:52;2.30;;;2.00;;
8632;SDS011;4354;49.832;10.746;2023-04-25T09:47:21;3.33;;;2.10;;
8632;SDS011;4354;49.832;10.746;2023-04-25T09:49:50;2.78;;;1.83;;
8632;SDS011;4354;49.832;10.746;2023-04-25T09:52:22;2.55;;;1.70;;
8632;SDS011;4354;49.832;10.746;2023-04-25T09:54:51;2.35;;;1.73;;
8632;SDS011;4354;49.832;10.746;2023-04-25T09:57:19;2.05;;;1.70;;
8632;SDS011;4354;49.832;10.746;2023-04-25T09:59:49;3.08;;;1.80;;
8632;SDS011;4354;49.832;10.746;2023-04-25T10:02:18;3.22;;;1.52;;
8632;SDS011;4354;49.832;10.746;2023-04-25T10:04:50;2.05;;;1.40;;
8632;SDS011;4354;49.832;10.746;2023-04-25T10:07:19;1.83;;;1.33;;
8632;SDS011;4354;49.832;10.746;2023-04-25T10:09:59;2.30;;;1.63;;
8632;SDS011;4354;49.832;10.746;2023-04-25T10:12:31;1.48;;;1.20;;
8632;SDS011;4354;49.832;10.746;2023-04-25T10:15:00;2.10;;;1.08;;
8632;SDS011;4354;49.832;10.746;2023-04-25T10:17:27;1.38;;;1.20;;
8632;SDS011;4354;49.832;10.746;2023-04-25T10:19:54;2.30;;;1.15;;
8632;SDS011;4354;49.832;10.746;2023-04-25T10:25:12;2.25;;;1.40;;
8632;SDS011;4354;49.832;10.746;2023-04-25T10:27:39;3.92;;;1.25;;
8632;SDS011;4354;49.832;10.746;2023-04-25T10:30:10;1.52;;;1.20;;
8632;SDS011;4354;49.832;10.746;2023-04-25T10:32:42;2.65;;;0.90;;
8632;SDS011;4354;49.832;10.746;2023-04-25T10:35:12;1.88;;;0.80;;
8632;SDS011;4354;49.832;10.746;2023-04-25T10:38:27;2.33;;;1.90;;
8632;SDS011;4354;49.832;10.746;2023-04-25T10:40:31;1.65;;;1.10;;
8632;SDS011;4354;49.832;10.746;2023-04-25T10:46:19;1.00;;;0.85;;
8632;SDS011;4354;49.832;10.746;2023-04-25T10:48:53;1.17;;;0.90;;
8632;SDS011;4354;49.832;10.746;2023-04-25T10:51:22;5.03;;;1.20;;
8632;SDS011;4354;49.832;10.746;2023-04-25T10:54:01;2.13;;;1.30;;
8632;SDS011;4354;49.832;10.746;2023-04-25T10:56:30;1.80;;;1.33;;
8632;SDS011;4354;49.832;10.746;2023-04-25T10:59:05;1.55;;;1.02;;
8632;SDS011;4354;49.832;10.746;2023-04-25T11:01:46;1.20;;;1.00;;
8632;SDS011;4354;49.832;10.746;2023-04-25T11:04:23;1.25;;;0.93;;
8632;SDS011;4354;49.832;10.746;2023-04-25T11:07:00;1.33;;;1.10;;
8632;SDS011;4354;49.832;10.746;2023-04-25T11:09:34;1.23;;;1.10;;
8632;SDS011;4354;49.832;10.746;2023-04-25T11:12:02;1.15;;;1.00;;
8632;SDS011;4354;49.832;10.746;2023-04-25T11:14:28;1.85;;;1.33;;
8632;SDS011;4354;49.832;10.746;2023-04-25T11:16:59;1.42;;;1.30;;
8632;SDS011;4354;49.832;10.746;2023-04-25T11:19:27;1.65;;;1.40;;
8632;SDS011;4354;49.832;10.746;2023-04-25T11:21:57;3.17;;;1.75;;
8632;SDS011;4354;49.832;10.746;2023-04-25T11:24:34;3.00;;;2.42;;
8632;SDS011;4354;49.832;10.746;2023-04-25T11:27:02;2.25;;;1.35;;
8632;SDS011;4354;49.832;10.746;2023-04-25T11:29:31;1.50;;;1.40;;
8632;SDS011;4354;49.832;10.746;2023-04-25T11:31:59;2.03;;;1.55;;
8632;SDS011;4354;49.832;10.746;2023-04-25T11:34:28;3.78;;;1.52;;
8632;SDS011;4354;49.832;10.746;2023-04-25T11:36:59;3.67;;;1.63;;
8632;SDS011;4354;49.832;10.746;2023-04-25T11:39:28;3.25;;;2.30;;
8632;SDS011;4354;49.832;10.746;2023-04-25T11:41:55;2.30;;;2.08;;
8632;SDS011;4354;49.832;10.746;2023-04-25T11:44:22;3.30;;;2.05;;
8632;SDS011;4354;49.832;10.746;2023-04-25T11:46:49;2.08;;;1.85;;
8632;SDS011;4354;49.832;10.746;2023-04-25T11:49:16;1.73;;;1.55;;
8632;SDS011;4354;49.832;10.746;2023-04-25T11:51:47;1.67;;;1.23;;
8632;SDS011;4354;49.832;10.746;2023-04-25T11:54:15;1.67;;;1.55;;
8632;SDS011;4354;49.832;10.746;2023-04-25T11:56:42;1.85;;;1.20;;
8632;SDS011;4354;49.832;10.746;2023-04-25T11:59:09;2.15;;;1.90;;
8632;SDS011;4354;49.832;10.746;2023-04-25T12:01:39;2.58;;;1.98;;
8632;SDS011;4354;49.832;10.746;2023-04-25T12:04:11;1.98;;;1.65;;
8632;SDS011;4354;49.832;10.746;2023-04-25T12:06:45;1.85;;;1.52;;
8632;SDS011;4354;49.832;10.746;2023-04-25T12:09:15;2.28;;;1.75;;
8632;SDS011;4354;49.832;10.746;2023-04-25T12:11:55;3.70;;;2.65;;
8632;SDS011;4354;49.832;10.746;2023-04-25T12:14:24;3.03;;;2.03;;
8632;SDS011;4354;49.832;10.746;2023-04-25T12:16:55;4.03;;;2.60;;
8632;SDS011;4354;49.832;10.746;2023-04-25T12:19:26;5.30;;;2.55;;
8632;SDS011;4354;49.832;10.746;2023-04-25T12:22:02;3.95;;;2.65;;
8632;SDS011;4354;49.832;10.746;2023-04-25T12:24:32;1.52;;;1.42;;
8632;SDS011;4354;49.832;10.746;2023-04-25T12:27:05;3.15;;;2.03;;
8632;SDS011;4354;49.832;10.746;2023-04-25T12:29:34;2.65;;;2.22;;
8632;SDS011;4354;49.832;10.746;2023-04-25T12:32:14;2.58;;;2.05;;
8632;SDS011;4354;49.832;10.746;2023-04-25T12:34:41;2.70;;;2.00;;
8632;SDS011;4354;49.832;10.746;2023-04-25T12:37:08;2.42;;;1.92;;
8632;SDS011;4354;49.832;10.746;2023-04-25T12:39:35;2.65;;;2.30;;
8632;SDS011;4354;49.832;10.746;2023-04-25T12:42:02;3.33;;;1.90;;
8632;SDS011;4354;49.832;10.746;2023-04-25T12:44:33;3.67;;;2.10;;
8632;SDS011;4354;49.832;10.746;2023-04-25T12:47:00;3.20;;;2.10;;
8632;SDS011;4354;49.832;10.746;2023-04-25T12:49:27;2.72;;;2.25;;
8632;SDS011;4354;49.832;10.746;2023-04-25T12:51:54;2.67;;;2.03;;
8632;SDS011;4354;49.832;10.746;2023-04-25T12:54:21;2.63;;;2.00;;
8632;SDS011;4354;49.832;10.746;2023-04-25T12:56:47;2.53;;;1.77;;
8632;SDS011;4354;49.832;10.746;2023-04-25T12:59:14;3.95;;;2.10;;
8632;SDS011;4354;49.832;10.746;2023-04-25T13:01:41;2.25;;;2.05;;
8632;SDS011;4354;49.832;10.746;2023-04-25T13:04:09;3.40;;;1.67;;
8632;SDS011;4354;49.832;10.746;2023-04-25T13:06:36;2.60;;;1.90;;
8632;SDS011;4354;49.832;10.746;2023-04-25T13:09:03;3.53;;;1.80;;
8632;SDS011;4354;49.832;10.746;2023-04-25T13:11:29;3.42;;;2.10;;
8632;SDS011;4354;49.832;10.746;2023-04-25T13:13:57;4.50;;;1.95;;
8632;SDS011;4354;49.832;10.746;2023-04-25T13:16:23;2.63;;;1.92;;
8632;SDS011;4354;49.832;10.746;2023-04-25T13:18:51;2.42;;;2.17;;
8632;SDS011;4354;49.832;10.746;2023-04-25T13:21:18;2.47;;;2.17;;
8632;SDS011;4354;49.832;10.746;2023-04-25T13:23:44;3.38;;;2.53;;
8632;SDS011;4354;49.832;10.746;2023-04-25T13:26:13;3.33;;;2.25;;
8632;SDS011;4354;49.832;10.746;2023-04-25T13:28:39;3.33;;;2.03;;
8632;SDS011;4354;49.832;10.746;2023-04-25T13:31:10;3.53;;;2.58;;
8632;SDS011;4354;49.832;10.746;2023-04-25T13:33:37;2.00;;;1.80;;
8632;SDS011;4354;49.832;10.746;2023-04-25T13:36:04;2.95;;;2.22;;
8632;SDS011;4354;49.832;10.746;2023-04-25T13:38:31;2.20;;;2.00;;
8632;SDS011;4354;49.832;10.746;2023-04-25T13:40:58;2.63;;;1.90;;
8632;SDS011;4354;49.832;10.746;2023-04-25T13:43:25;2.20;;;2.00;;
8632;SDS011;4354;49.832;10.746;2023-04-25T13:45:52;2.43;;;2.07;;
8632;SDS011;4354;49.832;10.746;2023-04-25T13:48:19;3.43;;;1.97;;
8632;SDS011;4354;49.832;10.746;2023-04-25T13:50:46;3.43;;;2.00;;
8632;SDS011;4354;49.832;10.746;2023-04-25T13:53:13;2.90;;;2.07;;
8632;SDS011;4354;49.832;10.746;2023-04-25T13:55:40;2.10;;;1.80;;
8632;SDS011;4354;49.832;10.746;2023-04-25T13:58:07;2.33;;;1.93;;
8632;SDS011;4354;49.832;10.746;2023-04-25T14:00:38;1.90;;;1.50;;
8632;SDS011;4354;49.832;10.746;2023-04-25T14:03:05;2.23;;;2.03;;
8632;SDS011;4354;49.832;10.746;2023-04-25T14:05:36;3.47;;;1.60;;
8632;SDS011;4354;49.832;10.746;2023-04-25T14:08:07;3.47;;;2.10;;
8632;SDS011;4354;49.832;10.746;2023-04-25T14:10:34;2.93;;;2.00;;
8632;SDS011;4354;49.832;10.746;2023-04-25T14:13:02;2.85;;;2.00;;
8632;SDS011;4354;49.832;10.746;2023-04-25T14:15:33;2.42;;;2.20;;
8632;SDS011;4354;49.832;10.746;2023-04-25T14:18:00;2.50;;;2.10;;
8632;SDS011;4354;49.832;10.746;2023-04-25T14:20:27;3.07;;;2.07;;
8632;SDS011;4354;49.832;10.746;2023-04-25T14:22:55;3.90;;;2.30;;
8632;SDS011;4354;49.832;10.746;2023-04-25T14:25:23;2.30;;;2.00;;
8632;SDS011;4354;49.832;10.746;2023-04-25T14:27:50;4.93;;;2.00;;
8632;SDS011;4354;49.832;10.746;2023-04-25T14:30:17;4.45;;;2.20;;
8632;SDS011;4354;49.832;10.746;2023-04-25T14:32:46;5.88;;;2.10;;
8632;SDS011;4354;49.832;10.746;2023-04-25T14:35:14;2.25;;;1.85;;
8632;SDS011;4354;49.832;10.746;2023-04-25T14:37:42;4.95;;;1.92;;
8632;SDS011;4354;49.832;10.746;2023-04-25T14:40:08;2.83;;;1.63;;
8632;SDS011;4354;49.832;10.746;2023-04-25T14:42:37;1.88;;;1.65;;
8632;SDS011;4354;49.832;10.746;2023-04-25T14:45:04;3.05;;;1.85;;
8632;SDS011;4354;49.832;10.746;2023-04-25T14:47:33;2.77;;;1.87;;
8632;SDS011;4354;49.832;10.746;2023-04-25T14:50:02;2.70;;;1.90;;
8632;SDS011;4354;49.832;10.746;2023-04-25T14:52:29;2.50;;;1.93;;
8632;SDS011;4354;49.832;10.746;2023-04-25T14:54:55;2.43;;;1.80;;
8632;SDS011;4354;49.832;10.746;2023-04-25T14:57:22;3.57;;;1.93;;
8632;SDS011;4354;49.832;10.746;2023-04-25T14:59:50;3.30;;;2.50;;
8632;SDS011;4354;49.832;10.746;2023-04-25T15:02:17;2.97;;;2.20;;
8632;SDS011;4354;49.832;10.746;2023-04-25T15:04:44;3.23;;;1.93;;
8632;SDS011;4354;49.832;10.746;2023-04-25T15:07:11;5.70;;;2.57;;
8632;SDS011;4354;49.832;10.746;2023-04-25T15:09:38;4.00;;;1.93;;
8632;SDS011;4354;49.832;10.746;2023-04-25T15:12:04;4.80;;;2.13;;
8632;SDS011;4354;49.832;10.746;2023-04-25T15:14:31;4.53;;;2.30;;